createdAt,value
2018-09-15T00:00:53.115Z,4.03
2018-09-15T00:03:23.354Z,3.70
2018-09-15T00:05:52.524Z,4.00
2018-09-15T00:08:22.444Z,4.10
2018-09-15T00:10:52.360Z,4.73
2018-09-15T00:13:23.020Z,3.73
2018-09-15T00:15:51.874Z,3.90
2018-09-15T00:18:20.780Z,3.97
2018-09-15T00:20:49.778Z,4.07
2018-09-15T00:23:19.690Z,4.20
2018-09-15T00:25:49.620Z,4.37
2018-09-15T00:28:19.527Z,3.77
2018-09-15T00:30:48.420Z,3.80
2018-09-15T00:33:17.406Z,3.70
2018-09-15T00:35:47.296Z,4.77
2018-09-15T00:38:16.165Z,4.03
2018-09-15T00:40:45.092Z,4.30
2018-09-15T00:43:15.044Z,3.83
2018-09-15T00:45:43.936Z,4.03
2018-09-15T00:48:12.909Z,4.17
2018-09-15T00:50:42.812Z,3.63
2018-09-15T00:53:11.693Z,3.93
2018-09-15T00:55:40.774Z,3.70
2018-09-15T00:58:09.674Z,3.93
2018-09-15T01:00:39.803Z,4.00
2018-09-15T01:03:08.702Z,3.80
2018-09-15T01:05:37.717Z,4.00
2018-09-15T01:08:06.708Z,3.87
2018-09-15T01:10:35.676Z,4.30
2018-09-15T01:13:05.651Z,4.30
2018-09-15T01:15:34.610Z,3.57
2018-09-15T01:18:03.855Z,4.07
2018-09-15T01:20:32.785Z,4.17
2018-09-15T01:23:01.828Z,4.23
2018-09-15T01:25:30.786Z,3.80
2018-09-15T01:27:59.822Z,4.07
2018-09-15T01:30:28.725Z,4.07
2018-09-15T01:32:57.653Z,3.77
2018-09-15T01:35:26.616Z,3.87
2018-09-15T01:37:56.035Z,4.23
2018-09-15T01:40:25.095Z,3.93
2018-09-15T01:42:54.002Z,4.03
2018-09-15T01:45:23.996Z,4.17
2018-09-15T01:47:53.968Z,3.60
2018-09-15T01:50:22.937Z,3.67
2018-09-15T01:52:51.892Z,3.50
2018-09-15T01:55:20.906Z,3.43
2018-09-15T01:57:49.829Z,3.60
2018-09-15T02:00:18.735Z,3.27
2018-09-15T02:02:47.673Z,3.27
2018-09-15T02:05:16.653Z,3.07
2018-09-15T02:07:45.576Z,2.50
2018-09-15T02:10:15.708Z,3.27
2018-09-15T02:12:44.608Z,3.37
2018-09-15T02:15:13.607Z,3.40
2018-09-15T02:17:42.508Z,3.90
2018-09-15T02:20:11.798Z,3.60
2018-09-15T02:22:40.835Z,4.10
2018-09-15T02:25:09.827Z,3.60
2018-09-15T02:27:39.808Z,3.60
2018-09-15T02:30:08.819Z,3.63
2018-09-15T02:32:37.799Z,3.93
2018-09-15T02:35:07.695Z,3.90
2018-09-15T02:37:37.705Z,3.50
2018-09-15T02:40:06.678Z,3.83
2018-09-15T02:42:35.585Z,3.67
2018-09-15T02:45:04.599Z,3.70
2018-09-15T02:47:33.572Z,3.30
2018-09-15T02:50:02.700Z,3.30
2018-09-15T02:52:31.676Z,3.57
2018-09-15T02:55:00.677Z,3.43
2018-09-15T02:57:30.581Z,3.10
2018-09-15T02:59:59.449Z,3.10
2018-09-15T03:02:28.338Z,3.63
2018-09-15T03:04:57.422Z,3.57
2018-09-15T03:07:26.419Z,3.40
2018-09-15T03:09:55.328Z,3.20
2018-09-15T03:12:24.244Z,3.30
2018-09-15T03:14:53.254Z,3.30
2018-09-15T03:17:22.207Z,3.30
2018-09-15T03:19:51.129Z,2.83
2018-09-15T03:22:21.066Z,2.83
2018-09-15T03:24:50.036Z,2.80
2018-09-15T03:27:19.025Z,2.63
2018-09-15T03:29:48.921Z,3.10
2018-09-15T03:32:18.867Z,3.27
2018-09-15T03:34:47.856Z,2.83
2018-09-15T03:37:17.006Z,2.93
2018-09-15T03:39:46.922Z,3.30
2018-09-15T03:42:15.877Z,2.83
2018-09-15T03:44:44.848Z,2.70
2018-09-15T03:47:13.744Z,3.00
2018-09-15T03:49:42.704Z,2.50
2018-09-15T03:52:11.655Z,2.30
2018-09-15T03:54:40.596Z,2.63
2018-09-15T03:57:09.535Z,2.27
2018-09-15T03:59:38.535Z,2.50
2018-09-15T04:02:07.538Z,2.40
2018-09-15T04:04:36.443Z,2.20
2018-09-15T04:07:05.360Z,2.40
2018-09-15T04:09:35.329Z,2.90
2018-09-15T04:12:06.239Z,2.83
2018-09-15T04:14:35.418Z,2.33
2018-09-15T04:17:04.291Z,2.63
2018-09-15T04:19:33.169Z,2.80
2018-09-15T04:22:02.607Z,2.90
2018-09-15T04:24:31.593Z,2.77
2018-09-15T04:27:01.527Z,2.70
2018-09-15T04:29:30.512Z,2.40
2018-09-15T04:32:00.542Z,2.30
2018-09-15T04:34:29.543Z,2.70
2018-09-15T04:36:58.500Z,2.60
2018-09-15T04:39:27.411Z,2.73
2018-09-15T04:41:57.345Z,2.40
2018-09-15T04:44:26.311Z,2.40
2018-09-15T04:46:55.274Z,2.67
2018-09-15T04:49:24.235Z,2.20
2018-09-15T04:51:54.117Z,2.87
2018-09-15T04:54:23.111Z,2.43
2018-09-15T04:56:52.095Z,2.30
2018-09-15T04:59:22.032Z,2.10
2018-09-15T05:01:50.982Z,2.33
2018-09-15T05:04:20.105Z,2.00
2018-09-15T05:06:49.102Z,2.20
2018-09-15T05:09:18.117Z,2.47
2018-09-15T05:11:47.575Z,1.80
2018-09-15T05:14:16.992Z,2.13
2018-09-15T05:16:45.892Z,1.80
2018-09-15T05:19:15.763Z,2.30
2018-09-15T05:21:44.750Z,2.07
2018-09-15T05:24:13.690Z,2.20
2018-09-15T05:26:43.596Z,2.33
2018-09-15T05:29:13.509Z,2.40
2018-09-15T05:31:43.468Z,2.30
2018-09-15T05:34:12.421Z,2.47
2018-09-15T05:36:41.304Z,2.10
2018-09-15T05:39:12.767Z,2.43
2018-09-15T05:41:43.639Z,2.37
2018-09-15T05:44:12.652Z,2.00
2018-09-15T05:46:42.570Z,2.20
2018-09-15T05:49:11.524Z,2.23
2018-09-15T05:51:40.558Z,2.43
2018-09-15T05:54:10.540Z,2.10
2018-09-15T05:56:39.687Z,1.80
2018-09-15T05:59:08.632Z,2.40
2018-09-15T06:01:37.630Z,2.50
2018-09-15T06:04:06.595Z,2.90
2018-09-15T06:06:35.648Z,2.70
2018-09-15T06:09:06.756Z,2.53
2018-09-15T06:11:36.883Z,2.67
2018-09-15T06:14:05.959Z,2.70
2018-09-15T06:16:34.964Z,2.27
2018-09-15T06:19:04.059Z,2.30
2018-09-15T06:21:33.147Z,2.43
2018-09-15T06:24:02.655Z,2.30
2018-09-15T06:26:33.232Z,2.30
2018-09-15T06:29:02.155Z,2.67
2018-09-15T06:31:32.119Z,2.77
2018-09-15T06:34:02.090Z,2.70
2018-09-15T06:36:32.071Z,3.60
2018-09-15T06:39:00.992Z,3.17
2018-09-15T06:41:30.201Z,3.27
2018-09-15T06:43:59.176Z,3.17
2018-09-15T06:46:28.428Z,3.80
2018-09-15T06:48:57.416Z,4.20
2018-09-15T06:51:26.381Z,4.10
2018-09-15T06:53:58.394Z,4.50
2018-09-15T06:56:28.393Z,3.90
2018-09-15T06:58:57.372Z,4.40
2018-09-15T07:01:26.456Z,4.33
2018-09-15T07:03:55.452Z,4.37
2018-09-15T07:06:24.406Z,4.17
2018-09-15T07:08:53.549Z,3.90
2018-09-15T07:11:23.441Z,4.20
2018-09-15T07:13:53.335Z,4.40
2018-09-15T07:16:22.222Z,4.97
2018-09-15T07:18:51.277Z,4.70
2018-09-15T07:21:20.256Z,5.00
2018-09-15T07:23:51.148Z,5.10
2018-09-15T07:26:20.098Z,5.33
2018-09-15T07:28:49.098Z,5.67
2018-09-15T07:31:18.222Z,5.43
2018-09-15T07:33:47.185Z,4.97
2018-09-15T07:36:17.377Z,5.27
2018-09-15T07:38:46.364Z,5.53
2018-09-15T07:41:15.314Z,4.93
2018-09-15T07:43:44.233Z,5.60
2018-09-15T07:46:14.283Z,5.47
2018-09-15T07:48:43.250Z,5.20
2018-09-15T07:51:12.122Z,5.50
2018-09-15T07:53:41.025Z,5.43
2018-09-15T07:56:10.199Z,5.73
2018-09-15T07:58:39.201Z,5.80
2018-09-15T08:01:08.077Z,5.50
2018-09-15T08:03:37.127Z,4.93
2018-09-15T08:06:06.197Z,5.23
2018-09-15T08:08:35.104Z,5.07
2018-09-15T08:11:05.006Z,4.83
2018-09-15T08:13:34.935Z,5.30
2018-09-15T08:16:04.314Z,4.90
2018-09-15T08:18:33.319Z,4.27
2018-09-15T08:21:02.595Z,5.00
2018-09-15T08:23:31.510Z,5.33
2018-09-15T08:26:01.462Z,4.63
2018-09-15T08:28:31.479Z,5.43
2018-09-15T08:31:00.643Z,4.90
2018-09-15T08:33:29.527Z,4.93
2018-09-15T08:35:59.575Z,4.53
2018-09-15T08:38:28.587Z,5.60
2018-09-15T08:40:57.528Z,4.10
2018-09-15T08:43:27.414Z,4.60
2018-09-15T08:45:56.346Z,4.30
2018-09-15T08:48:25.284Z,4.77
2018-09-15T08:50:54.267Z,4.93
2018-09-15T08:53:24.300Z,5.00
2018-09-15T08:55:54.256Z,4.97
2018-09-15T08:58:23.143Z,4.97
2018-09-15T09:00:52.180Z,4.83
2018-09-15T09:03:22.244Z,4.57
2018-09-15T09:05:53.795Z,4.93
2018-09-15T09:08:24.623Z,4.97
2018-09-15T09:10:53.555Z,4.97
2018-09-15T09:13:23.478Z,5.40
2018-09-15T09:15:52.593Z,5.17
2018-09-15T09:18:21.725Z,4.87
2018-09-15T09:20:50.804Z,4.67
2018-09-15T09:23:19.734Z,5.43
2018-09-15T09:25:49.646Z,5.00
2018-09-15T09:28:18.559Z,4.70
2018-09-15T09:30:47.535Z,4.50
2018-09-15T09:33:16.690Z,5.47
2018-09-15T09:35:45.902Z,5.17
2018-09-15T09:38:14.887Z,4.73
2018-09-15T09:40:43.805Z,4.63
2018-09-15T09:43:13.779Z,5.10
2018-09-15T09:45:43.669Z,4.37
2018-09-15T09:48:12.695Z,5.10
2018-09-15T09:50:41.943Z,4.70
2018-09-15T09:53:10.946Z,4.80
2018-09-15T09:55:40.837Z,5.13
2018-09-15T09:58:10.791Z,5.30
2018-09-15T10:00:45.178Z,4.40
2018-09-15T10:03:15.449Z,4.27
2018-09-15T10:05:44.393Z,4.27
2018-09-15T10:08:13.274Z,2.27
2018-09-15T10:10:42.175Z,2.43
2018-09-15T10:13:11.442Z,2.07
2018-09-15T10:15:41.978Z,2.70
2018-09-15T10:18:12.688Z,2.63
2018-09-15T10:20:42.642Z,2.47
2018-09-15T10:23:12.600Z,2.50
2018-09-15T10:25:41.691Z,2.57
2018-09-15T10:28:10.568Z,2.07
2018-09-15T10:30:39.661Z,2.33
2018-09-15T10:33:09.608Z,2.63
2018-09-15T10:35:39.644Z,2.40
2018-09-15T10:38:08.640Z,2.30
2018-09-15T10:40:37.603Z,1.97
2018-09-15T10:43:06.648Z,2.40
2018-09-15T10:45:35.599Z,2.90
2018-09-15T10:48:04.542Z,2.70
2018-09-15T10:50:34.491Z,2.53
2018-09-15T10:53:03.458Z,2.70
2018-09-15T10:55:33.350Z,2.50
2018-09-15T10:58:02.278Z,2.47
2018-09-15T11:00:31.381Z,3.00
2018-09-15T11:03:00.258Z,2.60
2018-09-15T11:05:29.244Z,2.30
2018-09-15T11:07:59.214Z,2.30
2018-09-15T11:10:28.293Z,2.43
2018-09-15T11:12:57.237Z,2.17
2018-09-15T11:15:27.159Z,2.20
2018-09-15T11:17:56.278Z,2.60
2018-09-15T11:20:26.174Z,2.40
2018-09-15T11:22:55.312Z,2.33
2018-09-15T11:25:24.648Z,2.27
2018-09-15T11:27:54.344Z,2.20
2018-09-15T11:30:23.355Z,2.20
2018-09-15T11:32:52.377Z,2.30
2018-09-15T11:35:22.879Z,2.10
2018-09-15T11:37:52.296Z,2.03
2018-09-15T11:40:23.033Z,2.10
2018-09-15T11:42:54.422Z,2.40
2018-09-15T11:45:23.373Z,2.53
2018-09-15T11:47:52.654Z,2.30
2018-09-15T11:50:22.576Z,2.53
2018-09-15T11:52:51.521Z,2.50
2018-09-15T11:55:20.482Z,2.00
2018-09-15T11:57:50.568Z,2.40
2018-09-15T12:00:23.153Z,1.93
2018-09-15T12:02:52.098Z,2.40
2018-09-15T12:05:21.127Z,2.90
2018-09-15T12:07:50.135Z,2.67
2018-09-15T12:10:19.046Z,2.20
2018-09-15T12:12:49.374Z,1.83
2018-09-15T12:15:18.705Z,2.00
2018-09-15T12:17:47.800Z,2.50
2018-09-15T12:20:17.724Z,2.40
2018-09-15T12:22:47.643Z,2.60
2018-09-15T12:25:16.555Z,2.50
2018-09-15T12:27:46.700Z,2.40
2018-09-15T12:30:15.761Z,2.97
2018-09-15T12:32:44.713Z,3.50
2018-09-15T12:35:13.707Z,3.23
2018-09-15T12:37:43.606Z,3.57
2018-09-15T12:40:12.611Z,4.00
2018-09-15T12:42:42.520Z,3.93
2018-09-15T12:45:12.505Z,3.30
2018-09-15T12:47:41.389Z,3.30
2018-09-15T12:50:10.352Z,3.27
2018-09-15T12:52:40.322Z,3.87
2018-09-15T12:55:09.209Z,3.20
2018-09-15T12:57:39.253Z,3.47
2018-09-15T13:00:08.128Z,4.07
2018-09-15T13:02:37.087Z,3.90
2018-09-15T13:05:06.023Z,3.57
2018-09-15T13:07:35.930Z,3.60
2018-09-15T13:10:05.265Z,3.80
2018-09-15T13:12:34.271Z,3.97
2018-09-15T13:15:04.266Z,3.00
2018-09-15T13:17:34.288Z,3.43
2018-09-15T13:20:03.263Z,3.93
2018-09-15T13:22:32.437Z,3.20
2018-09-15T13:25:01.345Z,3.60
2018-09-15T13:27:31.334Z,3.13
2018-09-15T13:30:00.339Z,3.20
2018-09-15T13:32:29.287Z,3.20
2018-09-15T13:34:58.449Z,3.40
2018-09-15T13:37:28.311Z,3.27
2018-09-15T13:39:57.228Z,3.20
2018-09-15T13:42:27.162Z,3.30
2018-09-15T13:44:57.191Z,2.60
2018-09-15T13:47:26.146Z,2.60
2018-09-15T13:49:55.246Z,2.87
2018-09-15T13:52:26.208Z,3.23
2018-09-15T13:54:55.090Z,3.33
2018-09-15T13:57:23.990Z,3.00
2018-09-15T13:59:54.961Z,3.23
2018-09-15T14:02:24.952Z,3.57
2018-09-15T14:04:54.010Z,2.80
2018-09-15T14:07:23.850Z,2.97
2018-09-15T14:09:53.760Z,2.77
2018-09-15T14:12:23.706Z,3.33
2018-09-15T14:14:52.680Z,3.03
2018-09-15T14:17:21.677Z,3.50
2018-09-15T14:19:50.661Z,3.33
2018-09-15T14:22:19.729Z,2.70
2018-09-15T14:24:48.649Z,3.03
2018-09-15T14:27:18.548Z,3.27
2018-09-15T14:29:48.847Z,2.80
2018-09-15T14:32:17.778Z,3.50
2018-09-15T14:34:47.002Z,3.23
2018-09-15T14:37:17.136Z,3.00
2018-09-15T14:39:46.098Z,2.90
2018-09-15T14:42:15.984Z,2.67
2018-09-15T14:44:44.889Z,2.63
2018-09-15T14:47:14.796Z,2.63
2018-09-15T14:49:44.785Z,3.13
2018-09-15T14:52:13.780Z,2.47
2018-09-15T14:54:43.737Z,2.40
2018-09-15T14:57:12.611Z,2.73
2018-09-15T14:59:42.614Z,2.70
2018-09-15T15:02:11.559Z,3.53
2018-09-15T15:04:40.546Z,2.80
2018-09-15T15:07:09.529Z,3.07
2018-09-15T15:09:39.780Z,2.87
2018-09-15T15:12:10.687Z,2.67
2018-09-15T15:14:39.616Z,2.60
2018-09-15T15:17:09.278Z,2.60
2018-09-15T15:19:39.458Z,2.57
2018-09-15T15:22:09.381Z,2.80
2018-09-15T15:24:38.340Z,2.57
2018-09-15T15:27:07.403Z,2.43
2018-09-15T15:29:37.364Z,2.30
2018-09-15T15:32:06.681Z,2.97
2018-09-15T15:34:36.823Z,2.97
2018-09-15T15:37:05.961Z,2.80
2018-09-15T15:39:34.967Z,2.60
2018-09-15T15:42:03.945Z,2.83
2018-09-15T15:44:33.133Z,2.17
2018-09-15T15:47:03.446Z,2.00
2018-09-15T15:49:33.049Z,2.33
2018-09-15T15:52:03.884Z,1.90
2018-09-15T15:54:32.893Z,2.10
2018-09-15T15:57:01.970Z,2.40
2018-09-15T15:59:30.939Z,2.73
2018-09-15T16:01:59.842Z,2.60
2018-09-15T16:04:28.833Z,2.50
2018-09-15T16:06:57.722Z,2.43
2018-09-15T16:09:26.651Z,2.80
2018-09-15T16:11:56.603Z,2.63
2018-09-15T16:14:25.545Z,2.40
2018-09-15T16:16:55.491Z,2.53
2018-09-15T16:19:24.456Z,2.50
2018-09-15T16:21:54.370Z,2.63
2018-09-15T16:24:24.288Z,3.00
2018-09-15T16:26:53.311Z,2.50
2018-09-15T16:29:23.292Z,2.40
2018-09-15T16:31:52.211Z,2.20
2018-09-15T16:34:21.159Z,2.10
2018-09-15T16:36:50.112Z,3.17
2018-09-15T16:39:19.083Z,3.47
2018-09-15T16:41:48.095Z,3.43
2018-09-15T16:44:17.087Z,2.93
2018-09-15T16:46:47.124Z,3.30
2018-09-15T16:49:16.106Z,2.97
2018-09-15T16:51:44.946Z,2.93
2018-09-15T16:54:13.887Z,2.90
2018-09-15T16:56:42.870Z,2.60
2018-09-15T16:59:11.825Z,2.60
2018-09-15T17:01:40.766Z,2.80
2018-09-15T17:04:09.704Z,2.57
2018-09-15T17:06:39.633Z,2.80
2018-09-15T17:09:10.078Z,3.60
2018-09-15T17:11:39.062Z,3.33
2018-09-15T17:14:10.025Z,3.03
2018-09-15T17:16:39.110Z,3.17
2018-09-15T17:19:08.048Z,3.20
2018-09-15T17:21:36.956Z,3.27
2018-09-15T17:24:05.892Z,3.47
2018-09-15T17:26:35.927Z,3.30
2018-09-15T17:29:04.937Z,3.27
2018-09-15T17:31:33.848Z,3.50
2018-09-15T17:34:02.779Z,3.37
2018-09-15T17:36:32.669Z,3.50
2018-09-15T17:39:01.666Z,3.27
2018-09-15T17:41:31.624Z,3.30
2018-09-15T17:44:00.563Z,3.20
2018-09-15T17:46:30.526Z,3.83
2018-09-15T17:48:59.513Z,3.40
2018-09-15T17:51:29.587Z,3.33
2018-09-15T17:53:59.568Z,3.17
2018-09-15T17:56:28.528Z,3.10
2018-09-15T17:58:57.505Z,3.27
2018-09-15T18:01:27.398Z,3.23
2018-09-15T18:03:57.333Z,2.77
2018-09-15T18:06:26.261Z,3.23
2018-09-15T18:08:55.216Z,3.20
2018-09-15T18:11:24.456Z,3.50
2018-09-15T18:13:53.402Z,3.10
2018-09-15T18:16:22.373Z,3.50
2018-09-15T18:19:20.859Z,3.33
2018-09-15T18:21:49.813Z,3.97
2018-09-15T18:24:19.713Z,3.73
2018-09-15T18:26:49.670Z,4.17
2018-09-15T18:29:18.868Z,3.77
2018-09-15T18:31:47.856Z,4.13
2018-09-15T18:34:16.823Z,3.60
2018-09-15T18:36:46.943Z,4.17
2018-09-15T18:39:16.720Z,4.37
2018-09-15T18:41:46.638Z,4.00
2018-09-15T18:44:15.737Z,4.57
2018-09-15T18:46:44.740Z,4.57
2018-09-15T18:49:13.777Z,5.07
2018-09-15T18:51:42.732Z,4.80
2018-09-15T18:54:11.717Z,4.80
2018-09-15T18:56:40.744Z,4.90
2018-09-15T18:59:09.712Z,4.60
2018-09-15T19:01:39.648Z,5.00
2018-09-15T19:04:09.599Z,4.63
2018-09-15T19:06:39.585Z,5.30
2018-09-15T19:09:10.920Z,5.30
2018-09-15T19:11:40.414Z,6.87
2018-09-15T19:14:10.542Z,5.70
2018-09-15T19:16:40.406Z,5.27
2018-09-15T19:19:09.341Z,5.20
2018-09-15T19:21:39.238Z,5.53
2018-09-15T19:24:09.201Z,7.07
2018-09-15T19:26:38.403Z,8.27
2018-09-15T19:29:07.257Z,7.20
2018-09-15T19:31:36.412Z,9.37
2018-09-15T19:34:05.329Z,8.33
2018-09-15T19:36:35.288Z,6.87
2018-09-15T19:39:06.412Z,6.30
2018-09-15T19:41:35.393Z,6.57
2018-09-15T19:44:05.317Z,6.83
2018-09-15T19:46:34.475Z,6.80
2018-09-15T19:49:04.432Z,7.17
2018-09-15T19:51:33.403Z,6.60
2018-09-15T19:54:03.343Z,6.70
2018-09-15T19:56:33.247Z,6.60
2018-09-15T19:59:03.272Z,7.07
2018-09-15T20:01:32.147Z,6.53
2018-09-15T20:04:02.102Z,7.57
2018-09-15T20:06:32.054Z,6.80
2018-09-15T20:09:00.970Z,6.70
2018-09-15T20:11:30.891Z,6.87
2018-09-15T20:13:59.865Z,6.37
2018-09-15T20:16:27.751Z,5.67
2018-09-15T20:18:56.672Z,5.67
2018-09-15T20:21:24.460Z,5.93
2018-09-15T20:23:53.469Z,5.80
2018-09-15T20:26:22.400Z,5.87
2018-09-15T20:28:53.358Z,5.63
2018-09-15T20:31:22.463Z,6.40
2018-09-15T20:33:51.415Z,5.83
2018-09-15T20:36:20.552Z,6.00
2018-09-15T20:38:50.623Z,5.80
2018-09-15T20:41:19.633Z,6.13
2018-09-15T20:43:49.524Z,6.07
2018-09-15T20:46:18.414Z,6.37
2018-09-15T20:48:48.369Z,6.20
2018-09-15T20:51:17.322Z,5.60
2018-09-15T20:53:46.220Z,6.37
2018-09-15T20:56:15.270Z,5.40
2018-09-15T20:58:44.207Z,5.73
2018-09-15T21:01:13.220Z,6.27
2018-09-15T21:03:42.465Z,6.13
2018-09-15T21:06:11.434Z,6.17
2018-09-15T21:08:40.356Z,6.53
2018-09-15T21:11:09.256Z,6.87
2018-09-15T21:13:38.180Z,6.73
2018-09-15T21:16:07.403Z,7.90
2018-09-15T21:18:36.539Z,6.80
2018-09-15T21:21:05.462Z,7.13
2018-09-15T21:23:34.416Z,6.70
2018-09-15T21:26:03.288Z,6.83
2018-09-15T21:28:32.171Z,6.80
2018-09-15T21:31:01.133Z,6.57
2018-09-15T21:33:30.109Z,6.50
2018-09-15T21:35:58.981Z,6.83
2018-09-15T21:38:27.901Z,6.53
2018-09-15T21:40:56.817Z,6.53
2018-09-15T21:43:25.742Z,6.97
2018-09-15T21:45:54.666Z,6.97
2018-09-15T21:48:24.583Z,7.00
2018-09-15T21:50:53.604Z,6.80
2018-09-15T21:53:22.584Z,6.80
2018-09-15T21:55:51.615Z,6.80
2018-09-15T21:58:20.599Z,6.80
2018-09-15T22:00:50.788Z,7.07
2018-09-15T22:03:23.281Z,7.23
2018-09-15T22:05:53.242Z,7.20
2018-09-15T22:08:23.203Z,6.87
2018-09-15T22:10:52.631Z,6.77
2018-09-15T22:13:21.646Z,6.87
2018-09-15T22:15:50.824Z,6.70
2018-09-15T22:18:19.800Z,6.80
2018-09-15T22:20:49.770Z,7.63
2018-09-15T22:23:19.767Z,6.93
2018-09-15T22:25:48.710Z,7.10
2018-09-15T22:28:17.685Z,7.17
2018-09-15T22:30:48.646Z,7.10
2018-09-15T22:33:17.795Z,7.40
2018-09-15T22:35:46.696Z,7.50
2018-09-15T22:38:15.643Z,7.57
2018-09-15T22:40:44.602Z,7.40
2018-09-15T22:43:13.569Z,6.90
2018-09-15T22:45:42.531Z,7.37
2018-09-15T22:48:11.438Z,7.10
2018-09-15T22:50:41.423Z,6.90
2018-09-15T22:53:10.465Z,7.23
2018-09-15T22:55:39.457Z,6.53
2018-09-15T22:58:09.420Z,7.30
2018-09-15T23:00:38.595Z,7.13
2018-09-15T23:03:07.486Z,7.33
2018-09-15T23:05:37.481Z,7.00
2018-09-15T23:08:06.484Z,6.87
2018-09-15T23:10:35.516Z,7.47
2018-09-15T23:13:04.410Z,7.70
2018-09-15T23:15:33.498Z,7.23
2018-09-15T23:18:02.493Z,7.57
2018-09-15T23:20:31.625Z,6.67
2018-09-15T23:23:00.638Z,7.47
2018-09-15T23:25:29.542Z,7.33
2018-09-15T23:27:59.624Z,6.70
2018-09-15T23:30:29.664Z,7.73
2018-09-15T23:32:58.601Z,7.00
2018-09-15T23:35:27.848Z,7.63
2018-09-15T23:37:56.803Z,7.07
2018-09-15T23:40:26.101Z,7.07
2018-09-15T23:42:55.085Z,6.90
2018-09-15T23:45:24.409Z,7.40
2018-09-15T23:47:54.385Z,6.97
2018-09-15T23:50:23.373Z,8.17
2018-09-15T23:52:52.264Z,7.47
2018-09-15T23:55:21.246Z,7.53
2018-09-15T23:57:50.260Z,7.23
